sensor_id;sensor_type;location;lat;lon;timestamp;P1;durP1;ratioP1;P2;durP2;ratioP2
7517;SDS011;3800;48.922;9.444;2023-03-13T00:00:32;8.47;;;2.87;;
7517;SDS011;3800;48.922;9.444;2023-03-13T00:03:01;8.17;;;3.00;;
7517;SDS011;3800;48.922;9.444;2023-03-13T00:05:29;11.90;;;3.37;;
7517;SDS011;3800;48.922;9.444;2023-03-13T00:07:57;10.07;;;2.67;;
7517;SDS011;3800;48.922;9.444;2023-03-13T00:10:25;8.13;;;3.07;;
7517;SDS011;3800;48.922;9.444;2023-03-13T00:12:52;8.90;;;2.83;;
7517;SDS011;3800;48.922;9.444;2023-03-13T00:15:20;11.43;;;3.10;;
7517;SDS011;3800;48.922;9.444;2023-03-13T00:17:48;11.20;;;3.80;;
7517;SDS011;3800;48.922;9.444;2023-03-13T00:20:15;10.83;;;3.00;;
7517;SDS011;3800;48.922;9.444;2023-03-13T00:22:43;8.73;;;2.97;;
7517;SDS011;3800;48.922;9.444;2023-03-13T00:25:11;10.90;;;3.23;;
7517;SDS011;3800;48.922;9.444;2023-03-13T00:27:39;9.43;;;2.90;;
7517;SDS011;3800;48.922;9.444;2023-03-13T00:30:06;8.87;;;3.20;;
7517;SDS011;3800;48.922;9.444;2023-03-13T00:32:40;11.77;;;3.47;;
7517;SDS011;3800;48.922;9.444;2023-03-13T00:35:07;12.00;;;3.60;;
7517;SDS011;3800;48.922;9.444;2023-03-13T00:37:35;8.63;;;3.37;;
7517;SDS011;3800;48.922;9.444;2023-03-13T00:40:03;7.90;;;3.17;;
7517;SDS011;3800;48.922;9.444;2023-03-13T00:42:31;9.87;;;2.87;;
7517;SDS011;3800;48.922;9.444;2023-03-13T00:44:58;10.10;;;3.17;;
7517;SDS011;3800;48.922;9.444;2023-03-13T00:47:27;7.43;;;2.97;;
7517;SDS011;3800;48.922;9.444;2023-03-13T00:49:55;7.77;;;2.53;;
7517;SDS011;3800;48.922;9.444;2023-03-13T00:52:22;12.53;;;3.33;;
7517;SDS011;3800;48.922;9.444;2023-03-13T00:54:50;9.37;;;2.80;;
7517;SDS011;3800;48.922;9.444;2023-03-13T00:57:18;7.33;;;3.63;;
7517;SDS011;3800;48.922;9.444;2023-03-13T00:59:45;8.23;;;2.90;;
7517;SDS011;3800;48.922;9.444;2023-03-13T01:02:13;8.63;;;2.63;;
7517;SDS011;3800;48.922;9.444;2023-03-13T01:04:41;7.03;;;2.60;;
7517;SDS011;3800;48.922;9.444;2023-03-13T01:07:10;7.67;;;2.50;;
7517;SDS011;3800;48.922;9.444;2023-03-13T01:09:39;10.37;;;2.60;;
7517;SDS011;3800;48.922;9.444;2023-03-13T01:12:07;10.27;;;2.93;;
7517;SDS011;3800;48.922;9.444;2023-03-13T01:14:35;8.50;;;2.67;;
7517;SDS011;3800;48.922;9.444;2023-03-13T01:17:02;9.03;;;2.73;;
7517;SDS011;3800;48.922;9.444;2023-03-13T01:19:30;9.17;;;2.50;;
7517;SDS011;3800;48.922;9.444;2023-03-13T01:21:58;8.87;;;2.57;;
7517;SDS011;3800;48.922;9.444;2023-03-13T01:24:25;7.27;;;2.97;;
7517;SDS011;3800;48.922;9.444;2023-03-13T01:26:53;7.27;;;2.80;;
7517;SDS011;3800;48.922;9.444;2023-03-13T01:29:21;7.67;;;2.73;;
7517;SDS011;3800;48.922;9.444;2023-03-13T01:31:48;8.10;;;2.80;;
7517;SDS011;3800;48.922;9.444;2023-03-13T01:34:16;10.93;;;2.73;;
7517;SDS011;3800;48.922;9.444;2023-03-13T01:36:44;8.10;;;2.70;;
7517;SDS011;3800;48.922;9.444;2023-03-13T01:39:13;6.10;;;2.30;;
7517;SDS011;3800;48.922;9.444;2023-03-13T01:41:40;9.30;;;3.00;;
7517;SDS011;3800;48.922;9.444;2023-03-13T01:44:17;6.50;;;2.50;;
7517;SDS011;3800;48.922;9.444;2023-03-13T01:46:39;7.83;;;2.30;;
7517;SDS011;3800;48.922;9.444;2023-03-13T01:49:07;6.90;;;2.40;;
7517;SDS011;3800;48.922;9.444;2023-03-13T01:51:52;6.53;;;2.37;;
7517;SDS011;3800;48.922;9.444;2023-03-13T01:54:21;8.30;;;2.40;;
7517;SDS011;3800;48.922;9.444;2023-03-13T01:59:39;5.43;;;2.47;;
7517;SDS011;3800;48.922;9.444;2023-03-13T02:02:06;7.43;;;2.40;;
7517;SDS011;3800;48.922;9.444;2023-03-13T02:04:35;7.67;;;2.00;;
7517;SDS011;3800;48.922;9.444;2023-03-13T02:07:03;12.00;;;2.60;;
7517;SDS011;3800;48.922;9.444;2023-03-13T02:09:30;8.30;;;2.80;;
7517;SDS011;3800;48.922;9.444;2023-03-13T02:12:00;6.77;;;2.33;;
7517;SDS011;3800;48.922;9.444;2023-03-13T02:14:31;6.30;;;2.00;;
7517;SDS011;3800;48.922;9.444;2023-03-13T02:16:59;6.07;;;1.93;;
7517;SDS011;3800;48.922;9.444;2023-03-13T02:19:29;5.43;;;2.37;;
7517;SDS011;3800;48.922;9.444;2023-03-13T02:22:02;6.80;;;2.43;;
7517;SDS011;3800;48.922;9.444;2023-03-13T02:24:48;5.80;;;2.43;;
7517;SDS011;3800;48.922;9.444;2023-03-13T02:27:13;6.73;;;2.23;;
7517;SDS011;3800;48.922;9.444;2023-03-13T02:29:40;6.73;;;2.37;;
7517;SDS011;3800;48.922;9.444;2023-03-13T02:32:09;6.00;;;2.27;;
7517;SDS011;3800;48.922;9.444;2023-03-13T02:34:37;4.73;;;2.10;;
7517;SDS011;3800;48.922;9.444;2023-03-13T02:37:05;5.50;;;2.03;;
7517;SDS011;3800;48.922;9.444;2023-03-13T02:39:32;7.00;;;2.00;;
7517;SDS011;3800;48.922;9.444;2023-03-13T02:41:59;5.67;;;2.10;;
7517;SDS011;3800;48.922;9.444;2023-03-13T02:44:28;6.43;;;2.17;;
7517;SDS011;3800;48.922;9.444;2023-03-13T02:46:55;5.73;;;2.17;;
7517;SDS011;3800;48.922;9.444;2023-03-13T02:49:25;6.40;;;2.13;;
7517;SDS011;3800;48.922;9.444;2023-03-13T02:51:52;5.63;;;2.30;;
7517;SDS011;3800;48.922;9.444;2023-03-13T02:54:21;6.00;;;1.97;;
7517;SDS011;3800;48.922;9.444;2023-03-13T02:56:48;4.67;;;1.90;;
7517;SDS011;3800;48.922;9.444;2023-03-13T02:59:15;6.40;;;2.10;;
7517;SDS011;3800;48.922;9.444;2023-03-13T03:01:42;5.50;;;2.00;;
7517;SDS011;3800;48.922;9.444;2023-03-13T03:04:10;5.20;;;2.30;;
7517;SDS011;3800;48.922;9.444;2023-03-13T03:06:38;5.00;;;2.13;;
7517;SDS011;3800;48.922;9.444;2023-03-13T03:09:06;3.97;;;2.00;;
7517;SDS011;3800;48.922;9.444;2023-03-13T03:11:34;8.90;;;2.30;;
7517;SDS011;3800;48.922;9.444;2023-03-13T03:14:02;3.20;;;1.70;;
7517;SDS011;3800;48.922;9.444;2023-03-13T03:16:29;6.60;;;1.87;;
7517;SDS011;3800;48.922;9.444;2023-03-13T03:18:57;5.23;;;1.90;;
7517;SDS011;3800;48.922;9.444;2023-03-13T03:21:25;7.20;;;2.13;;
7517;SDS011;3800;48.922;9.444;2023-03-13T03:23:52;2.50;;;1.50;;
7517;SDS011;3800;48.922;9.444;2023-03-13T03:26:20;6.47;;;2.00;;
7517;SDS011;3800;48.922;9.444;2023-03-13T03:28:48;3.40;;;1.90;;
7517;SDS011;3800;48.922;9.444;2023-03-13T03:31:15;5.43;;;1.93;;
7517;SDS011;3800;48.922;9.444;2023-03-13T03:33:43;4.23;;;2.20;;
7517;SDS011;3800;48.922;9.444;2023-03-13T03:36:12;3.17;;;1.50;;
7517;SDS011;3800;48.922;9.444;2023-03-13T03:38:40;5.07;;;2.00;;
7517;SDS011;3800;48.922;9.444;2023-03-13T03:41:09;3.83;;;1.97;;
7517;SDS011;3800;48.922;9.444;2023-03-13T03:43:37;5.67;;;1.90;;
7517;SDS011;3800;48.922;9.444;2023-03-13T03:46:05;3.40;;;1.73;;
7517;SDS011;3800;48.922;9.444;2023-03-13T03:48:32;5.90;;;1.80;;
7517;SDS011;3800;48.922;9.444;2023-03-13T03:51:00;5.73;;;2.27;;
7517;SDS011;3800;48.922;9.444;2023-03-13T03:53:28;6.10;;;2.10;;
7517;SDS011;3800;48.922;9.444;2023-03-13T03:55:55;5.43;;;2.40;;
7517;SDS011;3800;48.922;9.444;2023-03-13T03:58:23;2.70;;;1.40;;
7517;SDS011;3800;48.922;9.444;2023-03-13T04:00:50;3.27;;;1.60;;
7517;SDS011;3800;48.922;9.444;2023-03-13T04:03:18;4.07;;;1.90;;
7517;SDS011;3800;48.922;9.444;2023-03-13T04:05:46;4.80;;;2.20;;
7517;SDS011;3800;48.922;9.444;2023-03-13T04:08:14;7.03;;;2.10;;
7517;SDS011;3800;48.922;9.444;2023-03-13T04:10:42;8.37;;;2.30;;
7517;SDS011;3800;48.922;9.444;2023-03-13T04:13:09;3.10;;;1.80;;
7517;SDS011;3800;48.922;9.444;2023-03-13T04:15:38;4.57;;;2.03;;
7517;SDS011;3800;48.922;9.444;2023-03-13T04:18:05;6.70;;;2.20;;
7517;SDS011;3800;48.922;9.444;2023-03-13T04:20:33;4.00;;;1.90;;
7517;SDS011;3800;48.922;9.444;2023-03-13T04:23:01;3.47;;;1.73;;
7517;SDS011;3800;48.922;9.444;2023-03-13T04:25:28;3.60;;;1.87;;
7517;SDS011;3800;48.922;9.444;2023-03-13T04:27:56;3.53;;;1.53;;
7517;SDS011;3800;48.922;9.444;2023-03-13T04:30:24;2.83;;;1.60;;
7517;SDS011;3800;48.922;9.444;2023-03-13T04:32:51;3.37;;;1.77;;
7517;SDS011;3800;48.922;9.444;2023-03-13T04:35:19;4.17;;;1.70;;
7517;SDS011;3800;48.922;9.444;2023-03-13T04:37:47;4.10;;;1.43;;
7517;SDS011;3800;48.922;9.444;2023-03-13T04:40:14;4.03;;;1.57;;
7517;SDS011;3800;48.922;9.444;2023-03-13T04:42:42;4.13;;;1.60;;
7517;SDS011;3800;48.922;9.444;2023-03-13T04:45:10;3.27;;;1.40;;
7517;SDS011;3800;48.922;9.444;2023-03-13T04:47:37;4.03;;;1.50;;
7517;SDS011;3800;48.922;9.444;2023-03-13T04:50:06;4.53;;;1.60;;
7517;SDS011;3800;48.922;9.444;2023-03-13T04:52:34;3.97;;;1.30;;
7517;SDS011;3800;48.922;9.444;2023-03-13T04:55:03;2.27;;;1.30;;
7517;SDS011;3800;48.922;9.444;2023-03-13T04:57:31;3.53;;;1.40;;
7517;SDS011;3800;48.922;9.444;2023-03-13T04:59:58;2.07;;;1.30;;
7517;SDS011;3800;48.922;9.444;2023-03-13T05:02:27;2.00;;;1.20;;
7517;SDS011;3800;48.922;9.444;2023-03-13T05:04:54;2.07;;;1.20;;
7517;SDS011;3800;48.922;9.444;2023-03-13T05:07:23;3.30;;;1.10;;
7517;SDS011;3800;48.922;9.444;2023-03-13T05:09:50;1.43;;;1.07;;
7517;SDS011;3800;48.922;9.444;2023-03-13T05:12:18;2.07;;;1.50;;
7517;SDS011;3800;48.922;9.444;2023-03-13T05:14:46;2.03;;;1.00;;
7517;SDS011;3800;48.922;9.444;2023-03-13T05:17:13;1.80;;;1.00;;
7517;SDS011;3800;48.922;9.444;2023-03-13T05:19:41;1.67;;;1.20;;
7517;SDS011;3800;48.922;9.444;2023-03-13T05:22:09;3.67;;;1.20;;
7517;SDS011;3800;48.922;9.444;2023-03-13T05:24:38;3.63;;;1.23;;
7517;SDS011;3800;48.922;9.444;2023-03-13T05:27:06;1.77;;;1.10;;
7517;SDS011;3800;48.922;9.444;2023-03-13T05:29:33;2.00;;;1.30;;
7517;SDS011;3800;48.922;9.444;2023-03-13T05:32:01;2.30;;;1.20;;
7517;SDS011;3800;48.922;9.444;2023-03-13T05:34:28;2.23;;;1.10;;
7517;SDS011;3800;48.922;9.444;2023-03-13T05:36:56;1.73;;;1.10;;
7517;SDS011;3800;48.922;9.444;2023-03-13T05:39:24;1.40;;;1.00;;
7517;SDS011;3800;48.922;9.444;2023-03-13T05:41:52;1.10;;;1.00;;
7517;SDS011;3800;48.922;9.444;2023-03-13T05:44:19;2.93;;;1.10;;
7517;SDS011;3800;48.922;9.444;2023-03-13T05:46:47;2.17;;;1.07;;
7517;SDS011;3800;48.922;9.444;2023-03-13T05:49:15;2.27;;;1.00;;
7517;SDS011;3800;48.922;9.444;2023-03-13T05:51:43;3.33;;;1.13;;
7517;SDS011;3800;48.922;9.444;2023-03-13T05:54:11;1.60;;;1.13;;
7517;SDS011;3800;48.922;9.444;2023-03-13T05:56:39;2.43;;;1.07;;
7517;SDS011;3800;48.922;9.444;2023-03-13T05:59:07;4.37;;;3.23;;
7517;SDS011;3800;48.922;9.444;2023-03-13T06:01:34;1.73;;;1.20;;
7517;SDS011;3800;48.922;9.444;2023-03-13T06:04:03;2.90;;;1.40;;
7517;SDS011;3800;48.922;9.444;2023-03-13T06:06:30;2.07;;;1.20;;
7517;SDS011;3800;48.922;9.444;2023-03-13T06:08:58;4.10;;;1.13;;
7517;SDS011;3800;48.922;9.444;2023-03-13T06:11:27;1.60;;;1.00;;
7517;SDS011;3800;48.922;9.444;2023-03-13T06:13:55;1.73;;;1.40;;
7517;SDS011;3800;48.922;9.444;2023-03-13T06:16:22;1.97;;;1.03;;
7517;SDS011;3800;48.922;9.444;2023-03-13T06:18:51;1.20;;;0.90;;
7517;SDS011;3800;48.922;9.444;2023-03-13T06:21:18;2.10;;;1.00;;
7517;SDS011;3800;48.922;9.444;2023-03-13T06:23:46;1.60;;;1.10;;
7517;SDS011;3800;48.922;9.444;2023-03-13T06:26:14;1.20;;;1.00;;
7517;SDS011;3800;48.922;9.444;2023-03-13T06:28:41;1.30;;;1.00;;
7517;SDS011;3800;48.922;9.444;2023-03-13T06:31:09;1.67;;;1.10;;
7517;SDS011;3800;48.922;9.444;2023-03-13T06:33:36;1.90;;;0.93;;
7517;SDS011;3800;48.922;9.444;2023-03-13T06:36:04;1.60;;;1.07;;
7517;SDS011;3800;48.922;9.444;2023-03-13T06:38:33;1.73;;;1.00;;
7517;SDS011;3800;48.922;9.444;2023-03-13T06:41:01;1.53;;;0.90;;
7517;SDS011;3800;48.922;9.444;2023-03-13T06:43:28;0.80;;;0.80;;
7517;SDS011;3800;48.922;9.444;2023-03-13T06:46:02;1.33;;;1.10;;
7517;SDS011;3800;48.922;9.444;2023-03-13T06:48:24;2.07;;;1.00;;
7517;SDS011;3800;48.922;9.444;2023-03-13T06:50:53;1.63;;;1.33;;
7517;SDS011;3800;48.922;9.444;2023-03-13T06:53:21;2.43;;;1.20;;
7517;SDS011;3800;48.922;9.444;2023-03-13T06:55:48;1.70;;;1.10;;
7517;SDS011;3800;48.922;9.444;2023-03-13T06:58:16;2.43;;;1.50;;
7517;SDS011;3800;48.922;9.444;2023-03-13T07:00:44;4.00;;;1.20;;
7517;SDS011;3800;48.922;9.444;2023-03-13T07:03:12;1.50;;;1.03;;
7517;SDS011;3800;48.922;9.444;2023-03-13T07:05:40;1.57;;;0.97;;
7517;SDS011;3800;48.922;9.444;2023-03-13T07:08:07;1.20;;;1.10;;
7517;SDS011;3800;48.922;9.444;2023-03-13T07:10:36;1.27;;;0.90;;
7517;SDS011;3800;48.922;9.444;2023-03-13T07:13:03;1.37;;;0.93;;
7517;SDS011;3800;48.922;9.444;2023-03-13T07:15:31;1.30;;;1.10;;
7517;SDS011;3800;48.922;9.444;2023-03-13T07:17:59;1.60;;;1.10;;
7517;SDS011;3800;48.922;9.444;2023-03-13T07:20:27;1.33;;;1.03;;
7517;SDS011;3800;48.922;9.444;2023-03-13T07:22:54;1.30;;;1.10;;
7517;SDS011;3800;48.922;9.444;2023-03-13T07:25:22;1.73;;;1.00;;
7517;SDS011;3800;48.922;9.444;2023-03-13T07:27:50;1.00;;;0.90;;
7517;SDS011;3800;48.922;9.444;2023-03-13T07:30:18;0.90;;;0.80;;
7517;SDS011;3800;48.922;9.444;2023-03-13T07:32:45;1.20;;;1.00;;
7517;SDS011;3800;48.922;9.444;2023-03-13T07:35:13;0.87;;;0.80;;
7517;SDS011;3800;48.922;9.444;2023-03-13T07:37:40;1.10;;;0.97;;
7517;SDS011;3800;48.922;9.444;2023-03-13T07:40:08;0.80;;;0.80;;
7517;SDS011;3800;48.922;9.444;2023-03-13T07:42:39;0.97;;;0.83;;
7517;SDS011;3800;48.922;9.444;2023-03-13T07:45:07;1.10;;;1.00;;
7517;SDS011;3800;48.922;9.444;2023-03-13T07:47:35;1.00;;;0.90;;
7517;SDS011;3800;48.922;9.444;2023-03-13T07:50:03;1.20;;;1.00;;
7517;SDS011;3800;48.922;9.444;2023-03-13T07:52:32;1.23;;;1.00;;
7517;SDS011;3800;48.922;9.444;2023-03-13T07:54:59;1.10;;;1.00;;
7517;SDS011;3800;48.922;9.444;2023-03-13T07:57:27;4.10;;;1.10;;
7517;SDS011;3800;48.922;9.444;2023-03-13T07:59:55;0.80;;;0.80;;
7517;SDS011;3800;48.922;9.444;2023-03-13T08:02:22;1.10;;;0.90;;
7517;SDS011;3800;48.922;9.444;2023-03-13T08:04:52;0.97;;;0.90;;
7517;SDS011;3800;48.922;9.444;2023-03-13T08:07:19;1.43;;;0.83;;
7517;SDS011;3800;48.922;9.444;2023-03-13T08:09:48;1.10;;;1.00;;
7517;SDS011;3800;48.922;9.444;2023-03-13T08:12:15;2.17;;;1.00;;
7517;SDS011;3800;48.922;9.444;2023-03-13T08:14:43;2.07;;;1.10;;
7517;SDS011;3800;48.922;9.444;2023-03-13T08:17:10;0.90;;;0.90;;
7517;SDS011;3800;48.922;9.444;2023-03-13T08:19:38;1.10;;;1.00;;
7517;SDS011;3800;48.922;9.444;2023-03-13T08:22:06;0.90;;;0.80;;
7517;SDS011;3800;48.922;9.444;2023-03-13T08:24:34;1.40;;;0.87;;
7517;SDS011;3800;48.922;9.444;2023-03-13T08:27:01;1.10;;;1.00;;
7517;SDS011;3800;48.922;9.444;2023-03-13T08:29:29;1.33;;;0.90;;
7517;SDS011;3800;48.922;9.444;2023-03-13T08:31:57;1.23;;;1.00;;
7517;SDS011;3800;48.922;9.444;2023-03-13T08:34:26;2.10;;;1.10;;
7517;SDS011;3800;48.922;9.444;2023-03-13T08:36:54;1.60;;;1.00;;
7517;SDS011;3800;48.922;9.444;2023-03-13T08:39:22;2.60;;;1.30;;
7517;SDS011;3800;48.922;9.444;2023-03-13T08:41:49;0.87;;;0.87;;
7517;SDS011;3800;48.922;9.444;2023-03-13T08:44:17;1.80;;;0.90;;
7517;SDS011;3800;48.922;9.444;2023-03-13T08:46:45;1.47;;;1.00;;
7517;SDS011;3800;48.922;9.444;2023-03-13T08:49:12;3.17;;;1.00;;
7517;SDS011;3800;48.922;9.444;2023-03-13T08:51:40;1.13;;;1.03;;
7517;SDS011;3800;48.922;9.444;2023-03-13T08:54:08;1.63;;;1.20;;
7517;SDS011;3800;48.922;9.444;2023-03-13T08:56:36;1.20;;;1.00;;
7517;SDS011;3800;48.922;9.444;2023-03-13T08:59:04;2.13;;;1.10;;
7517;SDS011;3800;48.922;9.444;2023-03-13T09:01:32;1.17;;;0.87;;
7517;SDS011;3800;48.922;9.444;2023-03-13T09:03:59;1.20;;;0.93;;
7517;SDS011;3800;48.922;9.444;2023-03-13T09:06:27;1.60;;;1.00;;
7517;SDS011;3800;48.922;9.444;2023-03-13T09:08:55;1.70;;;1.20;;
7517;SDS011;3800;48.922;9.444;2023-03-13T09:11:24;2.60;;;1.20;;
7517;SDS011;3800;48.922;9.444;2023-03-13T09:13:51;1.37;;;1.13;;
7517;SDS011;3800;48.922;9.444;2023-03-13T09:16:20;3.33;;;1.23;;
7517;SDS011;3800;48.922;9.444;2023-03-13T09:18:47;1.73;;;1.10;;
7517;SDS011;3800;48.922;9.444;2023-03-13T09:21:16;1.50;;;1.20;;
7517;SDS011;3800;48.922;9.444;2023-03-13T09:23:42;1.80;;;1.17;;
7517;SDS011;3800;48.922;9.444;2023-03-13T09:26:10;1.37;;;1.07;;
7517;SDS011;3800;48.922;9.444;2023-03-13T09:28:37;2.10;;;1.40;;
7517;SDS011;3800;48.922;9.444;2023-03-13T09:31:06;2.23;;;1.30;;
7517;SDS011;3800;48.922;9.444;2023-03-13T09:33:33;4.30;;;1.37;;
7517;SDS011;3800;48.922;9.444;2023-03-13T09:36:00;2.83;;;1.40;;
7517;SDS011;3800;48.922;9.444;2023-03-13T09:38:30;2.60;;;1.60;;
7517;SDS011;3800;48.922;9.444;2023-03-13T09:41:02;1.73;;;1.30;;
7517;SDS011;3800;48.922;9.444;2023-03-13T09:46:08;2.43;;;1.53;;
7517;SDS011;3800;48.922;9.444;2023-03-13T09:48:41;2.20;;;1.27;;
7517;SDS011;3800;48.922;9.444;2023-03-13T09:51:12;2.73;;;1.50;;
7517;SDS011;3800;48.922;9.444;2023-03-13T09:53:45;2.40;;;1.53;;
7517;SDS011;3800;48.922;9.444;2023-03-13T09:56:14;1.40;;;1.30;;
7517;SDS011;3800;48.922;9.444;2023-03-13T09:58:41;1.87;;;1.50;;
7517;SDS011;3800;48.922;9.444;2023-03-13T10:01:08;2.87;;;1.47;;
7517;SDS011;3800;48.922;9.444;2023-03-13T10:03:39;2.20;;;1.40;;
7517;SDS011;3800;48.922;9.444;2023-03-13T10:06:14;2.10;;;1.63;;
7517;SDS011;3800;48.922;9.444;2023-03-13T10:08:45;4.33;;;1.83;;
7517;SDS011;3800;48.922;9.444;2023-03-13T10:11:31;2.53;;;1.70;;
7517;SDS011;3800;48.922;9.444;2023-03-13T10:14:00;2.47;;;1.40;;
7517;SDS011;3800;48.922;9.444;2023-03-13T10:16:29;3.30;;;1.50;;
7517;SDS011;3800;48.922;9.444;2023-03-13T10:18:57;1.53;;;1.30;;
7517;SDS011;3800;48.922;9.444;2023-03-13T10:21:25;2.23;;;1.53;;
7517;SDS011;3800;48.922;9.444;2023-03-13T10:23:55;1.50;;;1.23;;
7517;SDS011;3800;48.922;9.444;2023-03-13T10:26:26;2.80;;;1.40;;
7517;SDS011;3800;48.922;9.444;2023-03-13T10:28:52;2.43;;;1.40;;
7517;SDS011;3800;48.922;9.444;2023-03-13T10:31:35;2.63;;;1.60;;
7517;SDS011;3800;48.922;9.444;2023-03-13T10:34:06;2.40;;;1.60;;
7517;SDS011;3800;48.922;9.444;2023-03-13T10:36:42;1.77;;;1.47;;
7517;SDS011;3800;48.922;9.444;2023-03-13T10:39:15;4.70;;;1.60;;
7517;SDS011;3800;48.922;9.444;2023-03-13T10:41:41;1.60;;;1.50;;
7517;SDS011;3800;48.922;9.444;2023-03-13T10:44:15;1.70;;;1.40;;
7517;SDS011;3800;48.922;9.444;2023-03-13T10:46:43;4.33;;;1.50;;
7517;SDS011;3800;48.922;9.444;2023-03-13T10:49:13;2.90;;;1.50;;
7517;SDS011;3800;48.922;9.444;2023-03-13T10:51:45;3.53;;;1.60;;
7517;SDS011;3800;48.922;9.444;2023-03-13T10:54:21;2.13;;;1.60;;
7517;SDS011;3800;48.922;9.444;2023-03-13T10:56:48;4.97;;;1.80;;
7517;SDS011;3800;48.922;9.444;2023-03-13T10:59:18;5.43;;;1.60;;
7517;SDS011;3800;48.922;9.444;2023-03-13T11:01:44;2.50;;;1.43;;
7517;SDS011;3800;48.922;9.444;2023-03-13T11:06:50;2.30;;;1.60;;
7517;SDS011;3800;48.922;9.444;2023-03-13T11:09:18;2.07;;;1.60;;
7517;SDS011;3800;48.922;9.444;2023-03-13T11:11:47;2.20;;;1.50;;
7517;SDS011;3800;48.922;9.444;2023-03-13T11:14:16;3.37;;;1.70;;
7517;SDS011;3800;48.922;9.444;2023-03-13T11:16:47;2.47;;;1.70;;
7517;SDS011;3800;48.922;9.444;2023-03-13T11:24:41;1.90;;;1.40;;
7517;SDS011;3800;48.922;9.444;2023-03-13T11:27:19;2.90;;;1.60;;
7517;SDS011;3800;48.922;9.444;2023-03-13T11:30:00;1.73;;;1.50;;
7517;SDS011;3800;48.922;9.444;2023-03-13T11:35:38;5.73;;;1.70;;
7517;SDS011;3800;48.922;9.444;2023-03-13T11:38:08;1.57;;;1.30;;
7517;SDS011;3800;48.922;9.444;2023-03-13T11:40:35;2.07;;;1.50;;
7517;SDS011;3800;48.922;9.444;2023-03-13T11:43:08;1.60;;;1.40;;
7517;SDS011;3800;48.922;9.444;2023-03-13T11:46:08;3.83;;;1.70;;
7517;SDS011;3800;48.922;9.444;2023-03-13T11:51:05;3.50;;;1.70;;
7517;SDS011;3800;48.922;9.444;2023-03-13T11:53:35;3.77;;;1.67;;
7517;SDS011;3800;48.922;9.444;2023-03-13T11:56:05;3.50;;;1.60;;
7517;SDS011;3800;48.922;9.444;2023-03-13T11:58:39;3.03;;;1.73;;
7517;SDS011;3800;48.922;9.444;2023-03-13T12:01:08;3.60;;;1.60;;
7517;SDS011;3800;48.922;9.444;2023-03-13T12:03:35;4.13;;;1.60;;
7517;SDS011;3800;48.922;9.444;2023-03-13T12:06:01;3.30;;;1.53;;
7517;SDS011;3800;48.922;9.444;2023-03-13T12:08:35;3.63;;;1.47;;
7517;SDS011;3800;48.922;9.444;2023-03-13T12:11:05;2.03;;;1.67;;
7517;SDS011;3800;48.922;9.444;2023-03-13T12:13:49;6.40;;;2.00;;
7517;SDS011;3800;48.922;9.444;2023-03-13T12:16:18;5.40;;;1.40;;
7517;SDS011;3800;48.922;9.444;2023-03-13T12:18:46;3.13;;;1.73;;
7517;SDS011;3800;48.922;9.444;2023-03-13T12:21:18;2.70;;;1.30;;
7517;SDS011;3800;48.922;9.444;2023-03-13T12:23:54;2.90;;;1.53;;
7517;SDS011;3800;48.922;9.444;2023-03-13T12:26:27;2.60;;;1.37;;
7517;SDS011;3800;48.922;9.444;2023-03-13T12:29:11;2.27;;;1.40;;
7517;SDS011;3800;48.922;9.444;2023-03-13T12:31:47;3.13;;;1.30;;
7517;SDS011;3800;48.922;9.444;2023-03-13T12:34:17;3.30;;;1.40;;
7517;SDS011;3800;48.922;9.444;2023-03-13T12:36:50;3.70;;;1.80;;
7517;SDS011;3800;48.922;9.444;2023-03-13T12:42:48;2.63;;;1.30;;
7517;SDS011;3800;48.922;9.444;2023-03-13T12:45:05;4.23;;;1.50;;
7517;SDS011;3800;48.922;9.444;2023-03-13T12:53:13;2.37;;;1.30;;
7517;SDS011;3800;48.922;9.444;2023-03-13T12:58:48;2.23;;;1.40;;
7517;SDS011;3800;48.922;9.444;2023-03-13T13:04:10;2.00;;;1.40;;
7517;SDS011;3800;48.922;9.444;2023-03-13T13:09:18;2.00;;;1.30;;
7517;SDS011;3800;48.922;9.444;2023-03-13T13:11:44;1.80;;;1.37;;
7517;SDS011;3800;48.922;9.444;2023-03-13T13:17:13;3.80;;;1.70;;
7517;SDS011;3800;48.922;9.444;2023-03-13T13:19:45;2.27;;;1.30;;
7517;SDS011;3800;48.922;9.444;2023-03-13T13:24:55;4.70;;;1.47;;
7517;SDS011;3800;48.922;9.444;2023-03-13T13:30:31;2.30;;;1.33;;
7517;SDS011;3800;48.922;9.444;2023-03-13T13:35:39;1.70;;;1.17;;
7517;SDS011;3800;48.922;9.444;2023-03-13T13:43:29;2.07;;;1.20;;
7517;SDS011;3800;48.922;9.444;2023-03-13T13:48:44;3.90;;;1.30;;
7517;SDS011;3800;48.922;9.444;2023-03-13T13:51:21;3.37;;;1.10;;
7517;SDS011;3800;48.922;9.444;2023-03-13T13:53:50;4.17;;;1.47;;
7517;SDS011;3800;48.922;9.444;2023-03-13T13:58:58;2.80;;;1.10;;
7517;SDS011;3800;48.922;9.444;2023-03-13T14:01:32;2.60;;;1.10;;
7517;SDS011;3800;48.922;9.444;2023-03-13T14:04:18;2.97;;;1.23;;
7517;SDS011;3800;48.922;9.444;2023-03-13T14:06:43;2.90;;;1.30;;
7517;SDS011;3800;48.922;9.444;2023-03-13T14:09:15;3.13;;;1.00;;
7517;SDS011;3800;48.922;9.444;2023-03-13T14:11:41;1.57;;;1.27;;
7517;SDS011;3800;48.922;9.444;2023-03-13T14:14:10;2.33;;;1.30;;
7517;SDS011;3800;48.922;9.444;2023-03-13T14:16:43;3.20;;;1.37;;
7517;SDS011;3800;48.922;9.444;2023-03-13T14:21:47;1.77;;;1.10;;
7517;SDS011;3800;48.922;9.444;2023-03-13T14:24:15;5.10;;;4.40;;
7517;SDS011;3800;48.922;9.444;2023-03-13T14:26:43;10.03;;;7.20;;
7517;SDS011;3800;48.922;9.444;2023-03-13T14:29:15;14.47;;;9.43;;
7517;SDS011;3800;48.922;9.444;2023-03-13T14:31:49;2.77;;;1.30;;
7517;SDS011;3800;48.922;9.444;2023-03-13T14:34:11;3.57;;;2.60;;
7517;SDS011;3800;48.922;9.444;2023-03-13T14:39:18;7.33;;;4.97;;
7517;SDS011;3800;48.922;9.444;2023-03-13T14:41:45;6.67;;;4.53;;
7517;SDS011;3800;48.922;9.444;2023-03-13T14:44:13;2.00;;;1.47;;
7517;SDS011;3800;48.922;9.444;2023-03-13T14:46:42;2.00;;;1.30;;
7517;SDS011;3800;48.922;9.444;2023-03-13T14:49:14;4.43;;;1.90;;
7517;SDS011;3800;48.922;9.444;2023-03-13T14:51:44;2.40;;;1.20;;
7517;SDS011;3800;48.922;9.444;2023-03-13T14:57:00;2.83;;;1.20;;
7517;SDS011;3800;48.922;9.444;2023-03-13T14:59:22;3.47;;;1.17;;
7517;SDS011;3800;48.922;9.444;2023-03-13T15:01:45;2.27;;;1.30;;
7517;SDS011;3800;48.922;9.444;2023-03-13T15:04:14;2.97;;;1.40;;
7517;SDS011;3800;48.922;9.444;2023-03-13T15:06:41;3.63;;;0.97;;
7517;SDS011;3800;48.922;9.444;2023-03-13T15:09:14;3.27;;;1.50;;
7517;SDS011;3800;48.922;9.444;2023-03-13T15:11:41;1.60;;;1.20;;
7517;SDS011;3800;48.922;9.444;2023-03-13T15:16:49;2.07;;;1.10;;
7517;SDS011;3800;48.922;9.444;2023-03-13T15:19:17;1.93;;;1.10;;
7517;SDS011;3800;48.922;9.444;2023-03-13T15:21:44;2.70;;;1.10;;
7517;SDS011;3800;48.922;9.444;2023-03-13T15:24:12;2.87;;;1.20;;
7517;SDS011;3800;48.922;9.444;2023-03-13T15:26:40;4.27;;;1.30;;
7517;SDS011;3800;48.922;9.444;2023-03-13T15:29:08;4.00;;;1.30;;
7517;SDS011;3800;48.922;9.444;2023-03-13T15:31:36;2.97;;;1.13;;
7517;SDS011;3800;48.922;9.444;2023-03-13T15:34:05;3.50;;;1.20;;
7517;SDS011;3800;48.922;9.444;2023-03-13T15:36:32;2.23;;;1.10;;
7517;SDS011;3800;48.922;9.444;2023-03-13T15:39:00;1.73;;;1.13;;
7517;SDS011;3800;48.922;9.444;2023-03-13T15:41:28;4.00;;;1.60;;
7517;SDS011;3800;48.922;9.444;2023-03-13T15:43:56;2.37;;;1.10;;
7517;SDS011;3800;48.922;9.444;2023-03-13T15:46:24;3.73;;;1.43;;
7517;SDS011;3800;48.922;9.444;2023-03-13T15:48:53;2.17;;;1.10;;
7517;SDS011;3800;48.922;9.444;2023-03-13T15:51:20;2.83;;;1.40;;
7517;SDS011;3800;48.922;9.444;2023-03-13T15:53:49;2.10;;;1.20;;
7517;SDS011;3800;48.922;9.444;2023-03-13T15:56:18;6.03;;;1.40;;
7517;SDS011;3800;48.922;9.444;2023-03-13T15:58:45;4.53;;;1.40;;
7517;SDS011;3800;48.922;9.444;2023-03-13T16:01:14;2.47;;;1.10;;
7517;SDS011;3800;48.922;9.444;2023-03-13T16:03:41;2.93;;;1.30;;
7517;SDS011;3800;48.922;9.444;2023-03-13T16:06:15;2.30;;;1.37;;
7517;SDS011;3800;48.922;9.444;2023-03-13T16:08:42;1.77;;;1.30;;
7517;SDS011;3800;48.922;9.444;2023-03-13T16:11:11;2.67;;;1.20;;
7517;SDS011;3800;48.922;9.444;2023-03-13T16:13:39;2.50;;;1.30;;
7517;SDS011;3800;48.922;9.444;2023-03-13T16:16:11;1.60;;;1.40;;
7517;SDS011;3800;48.922;9.444;2023-03-13T16:18:38;2.10;;;1.50;;
7517;SDS011;3800;48.922;9.444;2023-03-13T16:21:17;3.13;;;1.40;;
7517;SDS011;3800;48.922;9.444;2023-03-13T16:23:34;4.80;;;2.00;;
7517;SDS011;3800;48.922;9.444;2023-03-13T16:26:02;3.40;;;1.40;;
7517;SDS011;3800;48.922;9.444;2023-03-13T16:28:29;2.37;;;1.33;;
7517;SDS011;3800;48.922;9.444;2023-03-13T16:30:57;5.13;;;1.53;;
7517;SDS011;3800;48.922;9.444;2023-03-13T16:33:25;2.40;;;1.40;;